Almo, Idaho
Current Conditions -  °F | °C
As of 5:53 PM on Friday 19 Dec 2014 (Local Time) from KBYI Reporting Station
Light Rain Light Rain  
Wind Chill:   Ceiling: 2100
Heat Index:   Visibility: 10mi
Dew Point:   Wind: 3mph
Humidity: 93%   Direction: 260°W
Pressure: 30.08"   Gusts: NA
Location:  42.1°N, 113.64°W
Report Text: KBYI 200053Z AUTO 26003KT 10SM -RA BKN021 OVC027 02/01 A3008 RMK AO2 SLP194 P0003 T00220011
Loading
Personal Weather Stations






























Interactive Weather Map New forecast layout! Learn more

10-Day Weather Forecast

Advertisements
Track Severe Weather on mobile